CES7630 ZUXC-PHNL
Flight info
| Callsign | CES7630 |
|---|---|
| Flight time | N/A |
| Altitude | 35100 |
| Route | BOPTU W162 KAKMI W144 IGNAK W179 WFX B213 ESPEG V154 SNF W269 OLPOV B213 WHA R343 PK A593 AKARA/K0911F351 A593 LAMEN/N0492F351 A593 SADLI Y590 BEDAR Y591 FUE Y23 KASTE Y81 TASOT Y57 LIGNI Y816 IPROS Y830 LAPIL OTR13 SEALS DCT 34N153E DCT 34N159E DCT 33N166E DCT 31N173E DCT 29N179E DCT 27N174W DCT 25N168W DCT CANON DCT CANON |
| Aircraft | MD11/H-SDE1E2E3FGHIJ2J3J4J5M1RWXY/LB1D1 |
Departure
| Time | 2026-05-06 13:46 |
|---|---|
| Airport | Xichang Qingshan Airport (ZUXC) |
Arrival
| Time | N/A |
|---|---|
| Airport | Daniel K. Inouye International Airport (PHNL) |
| Time | Latitude | Longitude | Altitude | Speed | Heading |
|---|---|---|---|---|---|
| 2026-05-06 13:22 | 27.98292 | 102.18647 | 5063 ft | 0 kts | 88° |
| 2026-05-06 13:37 | 27.98292 | 102.18625 | 5065 ft | 4 kts | 91° |
| 2026-05-06 13:37 | 27.98292 | 102.18598 | 5065 ft | 4 kts | 77° |
| 2026-05-06 13:37 | 27.98287 | 102.18579 | 5066 ft | 4 kts | 26° |
| 2026-05-06 13:38 | 27.98271 | 102.18577 | 5068 ft | 4 kts | 340° |
| 2026-05-06 13:38 | 27.98246 | 102.18587 | 5068 ft | 4 kts | 343° |
| 2026-05-06 13:38 | 27.98225 | 102.18593 | 5071 ft | 0 kts | 360° |
| 2026-05-06 13:40 | 27.98232 | 102.18593 | 5071 ft | 4 kts | 0° |
| 2026-05-06 13:41 | 27.98294 | 102.18591 | 5070 ft | 14 kts | 358° |
| 2026-05-06 13:41 | 27.98415 | 102.18585 | 5069 ft | 20 kts | 358° |
| 2026-05-06 13:41 | 27.98566 | 102.18580 | 5069 ft | 23 kts | 358° |
| 2026-05-06 13:41 | 27.98731 | 102.18574 | 5069 ft | 24 kts | 358° |
| 2026-05-06 13:42 | 27.98896 | 102.18568 | 5067 ft | 23 kts | 358° |
| 2026-05-06 13:42 | 27.99056 | 102.18561 | 5068 ft | 24 kts | 358° |
| 2026-05-06 13:42 | 27.99223 | 102.18556 | 5068 ft | 25 kts | 358° |
| 2026-05-06 13:42 | 27.99383 | 102.18549 | 5068 ft | 23 kts | 358° |
| 2026-05-06 13:43 | 27.99545 | 102.18543 | 5067 ft | 24 kts | 358° |
| 2026-05-06 13:43 | 27.99717 | 102.18537 | 5067 ft | 25 kts | 358° |
| 2026-05-06 13:43 | 27.99892 | 102.18531 | 5066 ft | 23 kts | 358° |
| 2026-05-06 13:43 | 28.00056 | 102.18523 | 5067 ft | 24 kts | 358° |
| 2026-05-06 13:44 | 28.00224 | 102.18516 | 5083 ft | 24 kts | 358° |
| 2026-05-06 13:44 | 28.00372 | 102.18511 | 5083 ft | 14 kts | 358° |
| 2026-05-06 13:44 | 28.00466 | 102.18506 | 5083 ft | 10 kts | 351° |
| 2026-05-06 13:44 | 28.00503 | 102.18454 | 5084 ft | 8 kts | 275° |
| 2026-05-06 13:45 | 28.00493 | 102.18384 | 5085 ft | 9 kts | 244° |
| 2026-05-06 13:45 | 28.00260 | 102.18378 | 5084 ft | 65 kts | 178° |
| 2026-05-06 13:45 | 27.99563 | 102.18405 | 5068 ft | 133 kts | 178° |
| 2026-05-06 13:46 | 27.98447 | 102.18448 | 5068 ft | 183 kts | 178° |
| 2026-05-06 13:46 | 27.97098 | 102.18495 | 5280 ft | 200 kts | 178° |
| 2026-05-06 13:46 | 27.95730 | 102.18562 | 5925 ft | 198 kts | 177° |
| 2026-05-06 13:46 | 27.94326 | 102.18651 | 6429 ft | 202 kts | 176° |
| 2026-05-06 13:47 | 27.92920 | 102.18746 | 7037 ft | 204 kts | 176° |
| 2026-05-06 13:47 | 27.91496 | 102.18839 | 7490 ft | 207 kts | 176° |
| 2026-05-06 13:47 | 27.90065 | 102.18831 | 7902 ft | 205 kts | 188° |
| 2026-05-06 13:47 | 27.88676 | 102.18423 | 8251 ft | 214 kts | 198° |
| 2026-05-06 13:48 | 27.87215 | 102.17844 | 8382 ft | 230 kts | 199° |
| 2026-05-06 13:48 | 27.85627 | 102.17565 | 8639 ft | 232 kts | 172° |
| 2026-05-06 13:48 | 27.84092 | 102.18120 | 8997 ft | 233 kts | 155° |
| 2026-05-06 13:48 | 27.82649 | 102.18935 | 9338 ft | 235 kts | 153° |
| 2026-05-06 13:49 | 27.81180 | 102.19790 | 9711 ft | 236 kts | 153° |
| 2026-05-06 13:49 | 27.79781 | 102.20758 | 9982 ft | 238 kts | 142° |
| 2026-05-06 13:49 | 27.78674 | 102.22187 | 10099 ft | 250 kts | 120° |
| 2026-05-06 13:49 | 27.78177 | 102.24107 | 10221 ft | 264 kts | 94° |
| 2026-05-06 13:50 | 27.78499 | 102.26164 | 10346 ft | 277 kts | 71° |
| 2026-05-06 13:50 | 27.79316 | 102.28212 | 10464 ft | 287 kts | 66° |
| 2026-05-06 13:50 | 27.80246 | 102.30251 | 10584 ft | 306 kts | 64° |
| 2026-05-06 13:50 | 27.81270 | 102.32463 | 10713 ft | 330 kts | 64° |
| 2026-05-06 13:51 | 27.82362 | 102.34842 | 10870 ft | 351 kts | 64° |
| 2026-05-06 13:51 | 27.83507 | 102.37351 | 10996 ft | 373 kts | 65° |
| 2026-05-06 13:51 | 27.84664 | 102.39902 | 12898 ft | 335 kts | 64° |
| 2026-05-06 13:51 | 27.85739 | 102.42278 | 14031 ft | 338 kts | 64° |
| 2026-05-06 13:52 | 27.86783 | 102.44606 | 14828 ft | 336 kts | 64° |
| 2026-05-06 13:52 | 27.87849 | 102.46991 | 15604 ft | 336 kts | 64° |
| 2026-05-06 13:52 | 27.88889 | 102.49319 | 16262 ft | 336 kts | 63° |
| 2026-05-06 13:52 | 27.89944 | 102.51677 | 16969 ft | 337 kts | 62° |
| 2026-05-06 13:53 | 27.91005 | 102.54040 | 17675 ft | 337 kts | 61° |
| 2026-05-06 13:53 | 27.92072 | 102.56407 | 18372 ft | 339 kts | 60° |
| 2026-05-06 13:53 | 27.93143 | 102.58784 | 19050 ft | 340 kts | 59° |
| 2026-05-06 13:53 | 27.94223 | 102.61179 | 19686 ft | 343 kts | 59° |
| 2026-05-06 13:54 | 27.95310 | 102.63589 | 20271 ft | 346 kts | 58° |
| 2026-05-06 13:54 | 27.96422 | 102.66051 | 20616 ft | 349 kts | 57° |
| 2026-05-06 13:54 | 27.97521 | 102.68499 | 21238 ft | 351 kts | 57° |
| 2026-05-06 13:54 | 27.98634 | 102.70971 | 21724 ft | 354 kts | 56° |
| 2026-05-06 13:55 | 27.99755 | 102.73464 | 22183 ft | 357 kts | 56° |
| 2026-05-06 13:55 | 28.00886 | 102.75978 | 22679 ft | 360 kts | 57° |
| 2026-05-06 13:55 | 28.02024 | 102.78515 | 23150 ft | 363 kts | 56° |
| 2026-05-06 13:55 | 28.03169 | 102.81067 | 23651 ft | 365 kts | 56° |
| 2026-05-06 13:56 | 28.04318 | 102.83633 | 24239 ft | 365 kts | 57° |
| 2026-05-06 13:56 | 28.05461 | 102.86188 | 24819 ft | 364 kts | 56° |
| 2026-05-06 13:56 | 28.06602 | 102.88738 | 25391 ft | 363 kts | 56° |
| 2026-05-06 13:56 | 28.07739 | 102.91283 | 25987 ft | 362 kts | 56° |
| 2026-05-06 13:57 | 28.08874 | 102.93820 | 26392 ft | 362 kts | 56° |
| 2026-05-06 13:57 | 28.10004 | 102.96352 | 26932 ft | 360 kts | 56° |
| 2026-05-06 13:57 | 28.11131 | 102.98876 | 27534 ft | 359 kts | 56° |
| 2026-05-06 13:57 | 28.12258 | 103.01401 | 28049 ft | 358 kts | 56° |
| 2026-05-06 13:58 | 28.13379 | 103.03915 | 28514 ft | 357 kts | 56° |
| 2026-05-06 13:58 | 28.14497 | 103.06422 | 29073 ft | 356 kts | 56° |
| 2026-05-06 13:58 | 28.15613 | 103.08923 | 29544 ft | 356 kts | 57° |
| 2026-05-06 13:58 | 28.16726 | 103.11422 | 30042 ft | 355 kts | 56° |
| 2026-05-06 13:59 | 28.17837 | 103.13919 | 30497 ft | 354 kts | 56° |
| 2026-05-06 13:59 | 28.18942 | 103.16403 | 30958 ft | 353 kts | 56° |
| 2026-05-06 13:59 | 28.20046 | 103.18887 | 31378 ft | 353 kts | 56° |
| 2026-05-06 13:59 | 28.21149 | 103.21370 | 31801 ft | 351 kts | 57° |
| 2026-05-06 14:00 | 28.22232 | 103.23809 | 32174 ft | 351 kts | 56° |
| 2026-05-06 14:00 | 28.23325 | 103.26273 | 32555 ft | 350 kts | 56° |
| 2026-05-06 14:00 | 28.24417 | 103.28736 | 32940 ft | 349 kts | 56° |
| 2026-05-06 14:00 | 28.25506 | 103.31194 | 33314 ft | 348 kts | 56° |
| 2026-05-06 14:01 | 28.26592 | 103.33649 | 33635 ft | 348 kts | 57° |
| 2026-05-06 14:01 | 28.27667 | 103.36097 | 33987 ft | 345 kts | 57° |
| 2026-05-06 14:01 | 28.28728 | 103.38520 | 34381 ft | 342 kts | 56° |
| 2026-05-06 14:01 | 28.29779 | 103.40921 | 34763 ft | 337 kts | 56° |
| 2026-05-06 14:02 | 28.30828 | 103.43304 | 34965 ft | 339 kts | 56° |
| 2026-05-06 14:02 | 28.31892 | 103.45710 | 35018 ft | 344 kts | 56° |
| 2026-05-06 14:02 | 28.34058 | 103.50612 | 35037 ft | 350 kts | 57° |
| 2026-05-06 14:03 | 28.36221 | 103.55532 | 35021 ft | 345 kts | 57° |
| 2026-05-06 14:03 | 28.38363 | 103.60405 | 35029 ft | 345 kts | 56° |
| 2026-05-06 14:04 | 28.40505 | 103.65277 | 35024 ft | 345 kts | 57° |
| 2026-05-06 14:04 | 28.42646 | 103.70154 | 35028 ft | 346 kts | 57° |
| 2026-05-06 14:05 | 28.44785 | 103.75031 | 35024 ft | 346 kts | 57° |
| 2026-05-06 14:05 | 28.46922 | 103.79915 | 35028 ft | 345 kts | 57° |
| 2026-05-06 14:06 | 28.49068 | 103.84818 | 35024 ft | 346 kts | 56° |
| 2026-05-06 14:06 | 28.51202 | 103.89707 | 35032 ft | 345 kts | 57° |
| 2026-05-06 14:07 | 28.53334 | 103.94593 | 35029 ft | 345 kts | 57° |
| 2026-05-06 14:07 | 28.55460 | 103.99472 | 35033 ft | 344 kts | 57° |
| 2026-05-06 14:08 | 28.57591 | 104.04372 | 35029 ft | 347 kts | 57° |
| 2026-05-06 14:08 | 28.59710 | 104.09295 | 35037 ft | 346 kts | 57° |
| 2026-05-06 14:09 | 28.61828 | 104.14205 | 35030 ft | 345 kts | 57° |
| 2026-05-06 14:09 | 28.64046 | 104.18989 | 35027 ft | 341 kts | 51° |
| 2026-05-06 14:10 | 28.66991 | 104.23113 | 35033 ft | 334 kts | 39° |
| 2026-05-06 14:10 | 28.70719 | 104.26200 | 35028 ft | 331 kts | 27° |
| 2026-05-06 14:11 | 28.74986 | 104.28146 | 35031 ft | 332 kts | 17° |
| 2026-05-06 14:11 | 28.79578 | 104.28872 | 35026 ft | 337 kts | 5° |
| 2026-05-06 14:12 | 28.84289 | 104.28665 | 35030 ft | 340 kts | 2° |
| 2026-05-06 14:12 | 28.89008 | 104.28338 | 35027 ft | 340 kts | 2° |
| 2026-05-06 14:13 | 28.93720 | 104.28046 | 35029 ft | 339 kts | 2° |
| 2026-05-06 14:13 | 28.98436 | 104.27774 | 35028 ft | 339 kts | 2° |
| 2026-05-06 14:14 | 29.03152 | 104.27510 | 35028 ft | 339 kts | 2° |
| 2026-05-06 14:14 | 29.07865 | 104.27247 | 35030 ft | 339 kts | 2° |
| 2026-05-06 14:15 | 29.12580 | 104.26985 | 35028 ft | 339 kts | 2° |
| 2026-05-06 14:15 | 29.17297 | 104.26723 | 35029 ft | 339 kts | 2° |
| 2026-05-06 14:16 | 29.22012 | 104.26461 | 35029 ft | 339 kts | 2° |
| 2026-05-06 14:16 | 29.26725 | 104.26230 | 35027 ft | 337 kts | 6° |
| 2026-05-06 14:17 | 29.31360 | 104.26762 | 35028 ft | 334 kts | 12° |
| 2026-05-06 14:17 | 29.35916 | 104.27561 | 35027 ft | 334 kts | 12° |
| 2026-05-06 14:18 | 29.40507 | 104.28367 | 35029 ft | 334 kts | 12° |
| 2026-05-06 14:18 | 29.45103 | 104.29159 | 35028 ft | 334 kts | 12° |
| 2026-05-06 14:19 | 29.49703 | 104.29947 | 35027 ft | 334 kts | 12° |
| 2026-05-06 14:19 | 29.54299 | 104.30733 | 35031 ft | 334 kts | 12° |
| 2026-05-06 14:20 | 29.58893 | 104.31519 | 35029 ft | 334 kts | 12° |
| 2026-05-06 14:20 | 29.63489 | 104.32305 | 35029 ft | 334 kts | 12° |
| 2026-05-06 14:21 | 29.67340 | 104.32965 | 35029 ft | 334 kts | 12° |
| 2026-05-06 14:21 | 29.72684 | 104.33880 | 35029 ft | 334 kts | 12° |
| 2026-05-06 14:22 | 29.76504 | 104.34536 | 35030 ft | 334 kts | 12° |
| 2026-05-06 14:22 | 29.81103 | 104.35325 | 35030 ft | 334 kts | 12° |
| 2026-05-06 14:23 | 29.85701 | 104.36116 | 35030 ft | 334 kts | 12° |
| 2026-05-06 14:23 | 29.90299 | 104.36906 | 35026 ft | 334 kts | 12° |
| 2026-05-06 14:24 | 29.94897 | 104.37698 | 35028 ft | 334 kts | 12° |
| 2026-05-06 14:24 | 29.99495 | 104.38491 | 35030 ft | 334 kts | 12° |
| 2026-05-06 14:25 | 30.04091 | 104.39284 | 35028 ft | 334 kts | 12° |
| 2026-05-06 14:25 | 30.08687 | 104.40077 | 35029 ft | 334 kts | 12° |
| 2026-05-06 14:26 | 30.13281 | 104.40874 | 35030 ft | 334 kts | 12° |
| 2026-05-06 14:26 | 30.17874 | 104.41678 | 35029 ft | 334 kts | 12° |
| 2026-05-06 14:27 | 30.22468 | 104.42483 | 35030 ft | 334 kts | 12° |
| 2026-05-06 14:27 | 30.27064 | 104.43288 | 35029 ft | 334 kts | 12° |
| 2026-05-06 14:28 | 30.31661 | 104.44094 | 35029 ft | 334 kts | 12° |
| 2026-05-06 14:28 | 30.36254 | 104.44900 | 35029 ft | 334 kts | 12° |
| 2026-05-06 14:29 | 30.40847 | 104.45706 | 35029 ft | 334 kts | 12° |
| 2026-05-06 14:29 | 30.45439 | 104.46514 | 35027 ft | 334 kts | 12° |
| 2026-05-06 14:30 | 30.49991 | 104.47382 | 35029 ft | 333 kts | 15° |
| 2026-05-06 14:30 | 30.54386 | 104.49067 | 35031 ft | 330 kts | 26° |
| 2026-05-06 14:31 | 30.58256 | 104.51937 | 35028 ft | 332 kts | 37° |
| 2026-05-06 14:31 | 30.61440 | 104.55869 | 35028 ft | 338 kts | 49° |
| 2026-05-06 14:32 | 30.63737 | 104.60664 | 35028 ft | 348 kts | 61° |
| 2026-05-06 14:32 | 30.65237 | 104.66056 | 35028 ft | 354 kts | 65° |
| 2026-05-06 14:33 | 30.66584 | 104.71550 | 35030 ft | 353 kts | 65° |
| 2026-05-06 14:33 | 30.67952 | 104.77030 | 35030 ft | 353 kts | 65° |
| 2026-05-06 14:34 | 30.69337 | 104.82499 | 35030 ft | 353 kts | 65° |
| 2026-05-06 14:34 | 30.70728 | 104.87968 | 35026 ft | 353 kts | 65° |
| 2026-05-06 14:35 | 30.72120 | 104.93443 | 35031 ft | 353 kts | 65° |
| 2026-05-06 14:35 | 30.73510 | 104.98917 | 35030 ft | 353 kts | 65° |
| 2026-05-06 14:36 | 30.74897 | 105.04392 | 35029 ft | 353 kts | 65° |
| 2026-05-06 14:36 | 30.76282 | 105.09870 | 35028 ft | 353 kts | 65° |
| 2026-05-06 14:37 | 30.77662 | 105.15340 | 35031 ft | 353 kts | 65° |
| 2026-05-06 14:37 | 30.79042 | 105.20817 | 35030 ft | 353 kts | 65° |
| 2026-05-06 14:38 | 30.80420 | 105.26300 | 35025 ft | 353 kts | 65° |
| 2026-05-06 14:38 | 30.81797 | 105.31785 | 35029 ft | 353 kts | 65° |
| 2026-05-06 14:39 | 30.83170 | 105.37272 | 35025 ft | 353 kts | 65° |
| 2026-05-06 14:39 | 30.84498 | 105.42741 | 35031 ft | 355 kts | 67° |
| 2026-05-06 14:40 | 30.85690 | 105.48315 | 35030 ft | 355 kts | 68° |
| 2026-05-06 14:40 | 30.86864 | 105.53908 | 35028 ft | 356 kts | 67° |
| 2026-05-06 14:41 | 30.88045 | 105.59500 | 35029 ft | 356 kts | 67° |
| 2026-05-06 14:41 | 30.89226 | 105.65084 | 35026 ft | 355 kts | 67° |
| 2026-05-06 14:42 | 30.90407 | 105.70673 | 35029 ft | 355 kts | 67° |
| 2026-05-06 14:42 | 30.91586 | 105.76265 | 35028 ft | 356 kts | 67° |
| 2026-05-06 14:43 | 30.92764 | 105.81859 | 35029 ft | 356 kts | 68° |
| 2026-05-06 14:43 | 30.93938 | 105.87454 | 35027 ft | 356 kts | 68° |
| 2026-05-06 14:44 | 30.95111 | 105.93051 | 35030 ft | 356 kts | 67° |
| 2026-05-06 14:45 | 30.96798 | 106.01477 | 35026 ft | 360 kts | 72° |
| 2026-05-06 14:45 | 30.97285 | 106.07349 | 35028 ft | 366 kts | 76° |
| 2026-05-06 14:46 | 30.97599 | 106.13278 | 35030 ft | 366 kts | 76° |
| 2026-05-06 14:46 | 30.97922 | 106.19200 | 35025 ft | 366 kts | 76° |
| 2026-05-06 14:47 | 30.98259 | 106.25113 | 35029 ft | 366 kts | 76° |
| 2026-05-06 14:47 | 30.98600 | 106.31034 | 35029 ft | 366 kts | 76° |
| 2026-05-06 14:48 | 30.98940 | 106.36946 | 35028 ft | 366 kts | 76° |
| 2026-05-06 14:48 | 30.99277 | 106.42866 | 35030 ft | 366 kts | 76° |
| 2026-05-06 14:49 | 30.99612 | 106.48784 | 35029 ft | 366 kts | 76° |
| 2026-05-06 14:49 | 30.99945 | 106.54706 | 35032 ft | 366 kts | 76° |
| 2026-05-06 14:50 | 31.00273 | 106.60625 | 35032 ft | 366 kts | 76° |
| 2026-05-06 14:50 | 31.00601 | 106.66553 | 35028 ft | 367 kts | 76° |
| 2026-05-06 14:51 | 31.00925 | 106.72485 | 35030 ft | 366 kts | 76° |
| 2026-05-06 14:51 | 31.01246 | 106.78407 | 35028 ft | 366 kts | 76° |
| 2026-05-06 14:52 | 31.01565 | 106.84329 | 35027 ft | 366 kts | 76° |
| 2026-05-06 14:52 | 31.01881 | 106.90252 | 35027 ft | 366 kts | 76° |
| 2026-05-06 14:53 | 31.02193 | 106.96142 | 35033 ft | 367 kts | 76° |
| 2026-05-06 14:53 | 31.02487 | 107.02078 | 35026 ft | 366 kts | 77° |
| 2026-05-06 14:54 | 31.02778 | 107.08012 | 35031 ft | 367 kts | 77° |
| 2026-05-06 14:54 | 31.03077 | 107.13945 | 35031 ft | 366 kts | 77° |
| 2026-05-06 14:55 | 31.03378 | 107.19876 | 35031 ft | 366 kts | 77° |
| 2026-05-06 14:55 | 31.03677 | 107.25802 | 35027 ft | 366 kts | 77° |
| 2026-05-06 14:56 | 31.03974 | 107.31735 | 35034 ft | 367 kts | 77° |
| 2026-05-06 14:56 | 31.04269 | 107.37669 | 35026 ft | 367 kts | 77° |
| 2026-05-06 14:57 | 31.04545 | 107.43609 | 35027 ft | 367 kts | 77° |
| 2026-05-06 14:57 | 31.04742 | 107.49568 | 35026 ft | 368 kts | 78° |
| 2026-05-06 14:58 | 31.04888 | 107.55536 | 35029 ft | 369 kts | 78° |
| 2026-05-06 14:58 | 31.05008 | 107.61508 | 35031 ft | 368 kts | 78° |
| 2026-05-06 14:59 | 31.05127 | 107.67478 | 35031 ft | 368 kts | 78° |
| 2026-05-06 14:59 | 31.05242 | 107.73457 | 35033 ft | 369 kts | 78° |
| 2026-05-06 15:00 | 31.05353 | 107.79428 | 35043 ft | 367 kts | 78° |
| 2026-05-06 15:00 | 31.05467 | 107.85403 | 35024 ft | 371 kts | 78° |
| 2026-05-06 15:01 | 31.05578 | 107.91408 | 35029 ft | 369 kts | 78° |
| 2026-05-06 15:01 | 31.05683 | 107.97389 | 35030 ft | 368 kts | 78° |
| 2026-05-06 15:02 | 31.05788 | 108.03364 | 35027 ft | 369 kts | 78° |
| 2026-05-06 15:02 | 31.05891 | 108.09347 | 35030 ft | 369 kts | 79° |
| 2026-05-06 15:03 | 31.05989 | 108.15321 | 35031 ft | 369 kts | 79° |
| 2026-05-06 15:03 | 31.06086 | 108.21300 | 35031 ft | 369 kts | 79° |
| 2026-05-06 15:04 | 31.06179 | 108.27286 | 35027 ft | 369 kts | 79° |
| 2026-05-06 15:04 | 31.06269 | 108.33266 | 35032 ft | 368 kts | 79° |
| 2026-05-06 15:05 | 31.06358 | 108.39209 | 35031 ft | 370 kts | 79° |
| 2026-05-06 15:05 | 31.06443 | 108.45199 | 35029 ft | 369 kts | 79° |
| 2026-05-06 15:06 | 31.06525 | 108.51181 | 35023 ft | 369 kts | 79° |
| 2026-05-06 15:06 | 31.06605 | 108.57205 | 35026 ft | 369 kts | 79° |
| 2026-05-06 15:07 | 31.06682 | 108.63152 | 35027 ft | 370 kts | 79° |
| 2026-05-06 15:07 | 31.06737 | 108.69149 | 35027 ft | 370 kts | 79° |
| 2026-05-06 15:08 | 31.06792 | 108.75144 | 35022 ft | 370 kts | 79° |
| 2026-05-06 15:08 | 31.06856 | 108.81135 | 35029 ft | 370 kts | 79° |
| 2026-05-06 15:09 | 31.06920 | 108.87123 | 35030 ft | 370 kts | 79° |
| 2026-05-06 15:09 | 31.06985 | 108.93120 | 35023 ft | 369 kts | 79° |
| 2026-05-06 15:10 | 31.07044 | 108.99111 | 35031 ft | 370 kts | 79° |
| 2026-05-06 15:10 | 31.07092 | 109.04101 | 35023 ft | 370 kts | 79° |
| 2026-05-06 15:11 | 31.07147 | 109.10093 | 35028 ft | 370 kts | 79° |
| 2026-05-06 15:11 | 31.07199 | 109.16088 | 35033 ft | 370 kts | 79° |
| 2026-05-06 15:12 | 31.07249 | 109.22089 | 35032 ft | 370 kts | 79° |
| 2026-05-06 15:12 | 31.07294 | 109.28083 | 35035 ft | 370 kts | 79° |
| 2026-05-06 15:13 | 31.07339 | 109.34079 | 35026 ft | 369 kts | 79° |
| 2026-05-06 15:13 | 31.07381 | 109.40080 | 35029 ft | 371 kts | 79° |
| 2026-05-06 15:14 | 31.07420 | 109.46096 | 35032 ft | 370 kts | 79° |
| 2026-05-06 15:14 | 31.07456 | 109.52103 | 35023 ft | 371 kts | 79° |
| 2026-05-06 15:15 | 31.07489 | 109.58124 | 35029 ft | 371 kts | 79° |
| 2026-05-06 15:15 | 31.07505 | 109.64092 | 35025 ft | 370 kts | 79° |
| 2026-05-06 15:16 | 31.07397 | 109.70110 | 35026 ft | 378 kts | 87° |
| 2026-05-06 15:16 | 31.06066 | 109.76196 | 35032 ft | 393 kts | 97° |
| 2026-05-06 15:17 | 31.04291 | 109.82257 | 35037 ft | 396 kts | 97° |
| 2026-05-06 15:17 | 31.02525 | 109.88317 | 35027 ft | 393 kts | 97° |
| 2026-05-06 15:18 | 31.00806 | 109.94366 | 35032 ft | 394 kts | 97° |
| 2026-05-06 15:18 | 30.99098 | 110.00422 | 35025 ft | 393 kts | 97° |
| 2026-05-06 15:19 | 30.97389 | 110.06482 | 35027 ft | 394 kts | 97° |
| 2026-05-06 15:19 | 30.95680 | 110.12529 | 35032 ft | 393 kts | 97° |
| 2026-05-06 15:20 | 30.93966 | 110.18588 | 35029 ft | 394 kts | 97° |
| 2026-05-06 15:20 | 30.92247 | 110.24642 | 35038 ft | 394 kts | 97° |
| 2026-05-06 15:21 | 30.90524 | 110.30704 | 35027 ft | 394 kts | 97° |
| 2026-05-06 15:21 | 30.88812 | 110.36711 | 35027 ft | 394 kts | 97° |
| 2026-05-06 15:22 | 30.87086 | 110.42753 | 35032 ft | 392 kts | 97° |
| 2026-05-06 15:22 | 30.85361 | 110.48791 | 35035 ft | 394 kts | 97° |
| 2026-05-06 15:23 | 30.83628 | 110.54838 | 35028 ft | 394 kts | 97° |
| 2026-05-06 15:23 | 30.81891 | 110.60886 | 35029 ft | 394 kts | 97° |
| 2026-05-06 15:24 | 30.80139 | 110.66919 | 35024 ft | 393 kts | 97° |
| 2026-05-06 15:24 | 30.78383 | 110.72942 | 35033 ft | 394 kts | 97° |
| 2026-05-06 15:25 | 30.76633 | 110.78984 | 35036 ft | 394 kts | 97° |
| 2026-05-06 15:25 | 30.74882 | 110.85028 | 35026 ft | 394 kts | 97° |
| 2026-05-06 15:26 | 30.73130 | 110.91065 | 35031 ft | 394 kts | 97° |
| 2026-05-06 15:26 | 30.71376 | 110.97102 | 35020 ft | 394 kts | 97° |
| 2026-05-06 15:27 | 30.69618 | 111.03140 | 35029 ft | 394 kts | 97° |
| 2026-05-06 15:27 | 30.67857 | 111.09176 | 35029 ft | 394 kts | 97° |
| 2026-05-06 15:28 | 30.66095 | 111.15204 | 35027 ft | 395 kts | 97° |
| 2026-05-06 15:28 | 30.64330 | 111.21233 | 35031 ft | 394 kts | 97° |
| 2026-05-06 15:29 | 30.62842 | 111.27244 | 35025 ft | 379 kts | 86° |
| 2026-05-06 15:29 | 30.62779 | 111.30227 | 35025 ft | 364 kts | 75° |
| 2026-05-06 15:29 | 30.63082 | 111.33122 | 35036 ft | 359 kts | 71° |
| 2026-05-06 15:30 | 30.63940 | 111.38832 | 35028 ft | 359 kts | 71° |
| 2026-05-06 15:30 | 30.64775 | 111.44554 | 35026 ft | 360 kts | 71° |
| 2026-05-06 15:31 | 30.65399 | 111.50358 | 35030 ft | 365 kts | 76° |
| 2026-05-06 15:31 | 30.65721 | 111.56262 | 35030 ft | 367 kts | 77° |
| 2026-05-06 15:32 | 30.66155 | 111.65125 | 35028 ft | 366 kts | 77° |
| 2026-05-06 15:32 | 30.66451 | 111.71027 | 35030 ft | 366 kts | 77° |
| 2026-05-06 15:33 | 30.66750 | 111.76933 | 35025 ft | 366 kts | 77° |
| 2026-05-06 15:33 | 30.67051 | 111.82845 | 35029 ft | 366 kts | 77° |
| 2026-05-06 15:34 | 30.67350 | 111.88751 | 35028 ft | 367 kts | 77° |
| 2026-05-06 15:34 | 30.67646 | 111.94661 | 35030 ft | 366 kts | 76° |
| 2026-05-06 15:35 | 30.68009 | 112.00552 | 35030 ft | 365 kts | 76° |
| 2026-05-06 15:35 | 30.68415 | 112.06432 | 35030 ft | 365 kts | 75° |
| 2026-05-06 15:36 | 30.68819 | 112.12273 | 35028 ft | 365 kts | 76° |
| 2026-05-06 15:36 | 30.69225 | 112.18191 | 35030 ft | 365 kts | 76° |
| 2026-05-06 15:37 | 30.69622 | 112.24035 | 35030 ft | 365 kts | 76° |
| 2026-05-06 15:37 | 30.70019 | 112.29919 | 35027 ft | 365 kts | 76° |
| 2026-05-06 15:38 | 30.70413 | 112.35805 | 35030 ft | 365 kts | 76° |
| 2026-05-06 15:38 | 30.70804 | 112.41686 | 35030 ft | 365 kts | 76° |
| 2026-05-06 15:39 | 30.71192 | 112.47570 | 35029 ft | 365 kts | 76° |
| 2026-05-06 15:39 | 30.71579 | 112.53461 | 35031 ft | 365 kts | 76° |
| 2026-05-06 15:40 | 30.71963 | 112.59350 | 35030 ft | 365 kts | 76° |
| 2026-05-06 15:40 | 30.72343 | 112.65239 | 35028 ft | 365 kts | 76° |
| 2026-05-06 15:41 | 30.72721 | 112.71127 | 35028 ft | 365 kts | 76° |
| 2026-05-06 15:41 | 30.73097 | 112.77018 | 35028 ft | 365 kts | 76° |
| 2026-05-06 15:42 | 30.73470 | 112.82910 | 35029 ft | 366 kts | 76° |
| 2026-05-06 15:42 | 30.73840 | 112.88801 | 35030 ft | 366 kts | 76° |
| 2026-05-06 15:43 | 30.74197 | 112.94696 | 35030 ft | 366 kts | 76° |
| 2026-05-06 15:43 | 30.74543 | 113.00598 | 35030 ft | 366 kts | 76° |
| 2026-05-06 15:44 | 30.74897 | 113.06493 | 35028 ft | 366 kts | 76° |
| 2026-05-06 15:44 | 30.75254 | 113.12390 | 35028 ft | 366 kts | 76° |
| 2026-05-06 15:45 | 30.75487 | 113.18324 | 35029 ft | 368 kts | 78° |
| 2026-05-06 15:45 | 30.75639 | 113.24281 | 35030 ft | 368 kts | 78° |
| 2026-05-06 15:46 | 30.75786 | 113.30194 | 35028 ft | 368 kts | 78° |
| 2026-05-06 15:46 | 30.75937 | 113.36144 | 35030 ft | 368 kts | 78° |
| 2026-05-06 15:47 | 30.76089 | 113.42137 | 35028 ft | 368 kts | 78° |
| 2026-05-06 15:47 | 30.76238 | 113.48083 | 35028 ft | 368 kts | 78° |
| 2026-05-06 15:48 | 30.76383 | 113.53995 | 35028 ft | 368 kts | 78° |
| 2026-05-06 15:48 | 30.76526 | 113.59950 | 35029 ft | 368 kts | 78° |
| 2026-05-06 15:49 | 30.76666 | 113.65904 | 35028 ft | 368 kts | 78° |
| 2026-05-06 15:49 | 30.76804 | 113.71862 | 35030 ft | 368 kts | 78° |
| 2026-05-06 15:50 | 30.76940 | 113.77820 | 35028 ft | 368 kts | 78° |
| 2026-05-06 15:50 | 30.77072 | 113.83774 | 35031 ft | 369 kts | 78° |
| 2026-05-06 15:51 | 30.77202 | 113.89730 | 35028 ft | 369 kts | 78° |
| 2026-05-06 15:51 | 30.77329 | 113.95688 | 35029 ft | 369 kts | 78° |
| 2026-05-06 15:52 | 30.77462 | 114.01647 | 35028 ft | 368 kts | 78° |
| 2026-05-06 15:52 | 30.77672 | 114.07586 | 35028 ft | 367 kts | 77° |
| 2026-05-06 15:53 | 30.77912 | 114.13513 | 35030 ft | 367 kts | 77° |
| 2026-05-06 15:53 | 30.78215 | 114.19426 | 35025 ft | 361 kts | 72° |
| 2026-05-06 15:54 | 30.79586 | 114.24889 | 35030 ft | 349 kts | 61° |
| 2026-05-06 15:54 | 30.81369 | 114.30135 | 35030 ft | 349 kts | 61° |
| 2026-05-06 15:55 | 30.83122 | 114.35402 | 35027 ft | 349 kts | 61° |
| 2026-05-06 15:55 | 30.84844 | 114.40687 | 35027 ft | 349 kts | 62° |
| 2026-05-06 15:56 | 30.86557 | 114.45983 | 35029 ft | 349 kts | 62° |
| 2026-05-06 15:56 | 30.88273 | 114.51273 | 35029 ft | 349 kts | 61° |
| 2026-05-06 15:57 | 30.89992 | 114.56561 | 35027 ft | 349 kts | 61° |
| 2026-05-06 15:57 | 30.91711 | 114.61856 | 35029 ft | 349 kts | 61° |
| 2026-05-06 15:58 | 30.93426 | 114.67147 | 35029 ft | 349 kts | 62° |
| 2026-05-06 15:58 | 30.95141 | 114.72442 | 35030 ft | 349 kts | 62° |
| 2026-05-06 15:59 | 30.96563 | 114.76844 | 35030 ft | 349 kts | 62° |
| 2026-05-06 15:59 | 30.98274 | 114.82146 | 35028 ft | 349 kts | 62° |
| 2026-05-06 16:00 | 30.99982 | 114.87447 | 35030 ft | 350 kts | 62° |
| 2026-05-06 16:00 | 31.01689 | 114.92755 | 35027 ft | 350 kts | 62° |
| 2026-05-06 16:01 | 31.03384 | 114.98068 | 35030 ft | 350 kts | 62° |
| 2026-05-06 16:01 | 31.05079 | 115.03379 | 35028 ft | 349 kts | 62° |
| 2026-05-06 16:02 | 31.06773 | 115.08685 | 35025 ft | 348 kts | 62° |
| 2026-05-06 16:02 | 31.08463 | 115.13976 | 35030 ft | 349 kts | 62° |
| 2026-05-06 16:03 | 31.10158 | 115.19287 | 35029 ft | 350 kts | 62° |
| 2026-05-06 16:03 | 31.11831 | 115.24577 | 35026 ft | 349 kts | 62° |
| 2026-05-06 16:04 | 31.13518 | 115.29893 | 35034 ft | 349 kts | 61° |
| 2026-05-06 16:04 | 31.15236 | 115.35200 | 35027 ft | 349 kts | 61° |
| 2026-05-06 16:05 | 31.16956 | 115.40500 | 35030 ft | 349 kts | 61° |
| 2026-05-06 16:05 | 31.18674 | 115.45804 | 35032 ft | 350 kts | 61° |
| 2026-05-06 16:06 | 31.20391 | 115.51115 | 35027 ft | 349 kts | 62° |
| 2026-05-06 16:06 | 31.22105 | 115.56426 | 35027 ft | 349 kts | 62° |
| 2026-05-06 16:07 | 31.23819 | 115.61743 | 35033 ft | 351 kts | 62° |
| 2026-05-06 16:07 | 31.25537 | 115.67084 | 35031 ft | 351 kts | 62° |
| 2026-05-06 16:08 | 31.27248 | 115.72416 | 35032 ft | 350 kts | 62° |
| 2026-05-06 16:08 | 31.28954 | 115.77741 | 35030 ft | 349 kts | 62° |
| 2026-05-06 16:09 | 31.30647 | 115.83071 | 35030 ft | 350 kts | 62° |
| 2026-05-06 16:09 | 31.32345 | 115.88397 | 35029 ft | 349 kts | 61° |
| 2026-05-06 16:10 | 31.34071 | 115.93706 | 35032 ft | 349 kts | 61° |
| 2026-05-06 16:10 | 31.35806 | 115.99016 | 35026 ft | 349 kts | 61° |
| 2026-05-06 16:11 | 31.37539 | 116.04330 | 35031 ft | 350 kts | 61° |
| 2026-05-06 16:11 | 31.39273 | 116.09655 | 35028 ft | 351 kts | 61° |
| 2026-05-06 16:12 | 31.40993 | 116.14947 | 35027 ft | 349 kts | 61° |
| 2026-05-06 16:12 | 31.42717 | 116.20262 | 35034 ft | 349 kts | 61° |
| 2026-05-06 16:13 | 31.44441 | 116.25581 | 35028 ft | 349 kts | 61° |
| 2026-05-06 16:13 | 31.46164 | 116.30907 | 35032 ft | 350 kts | 61° |
| 2026-05-06 16:14 | 31.47883 | 116.36231 | 35027 ft | 349 kts | 61° |
| 2026-05-06 16:14 | 31.49601 | 116.41560 | 35028 ft | 349 kts | 62° |
| 2026-05-06 16:15 | 31.51314 | 116.46884 | 35031 ft | 349 kts | 62° |
| 2026-05-06 16:15 | 31.53028 | 116.52215 | 35027 ft | 349 kts | 62° |
| 2026-05-06 16:16 | 31.54739 | 116.57550 | 35028 ft | 349 kts | 62° |
| 2026-05-06 16:16 | 31.56447 | 116.62884 | 35030 ft | 350 kts | 62° |
| 2026-05-06 16:17 | 31.58153 | 116.68220 | 35028 ft | 350 kts | 62° |
| 2026-05-06 16:17 | 31.59856 | 116.73554 | 35030 ft | 350 kts | 62° |
| 2026-05-06 16:18 | 31.61556 | 116.78898 | 35027 ft | 350 kts | 62° |
| 2026-05-06 16:18 | 31.63238 | 116.84253 | 35030 ft | 350 kts | 62° |
| 2026-05-06 16:19 | 31.64926 | 116.89610 | 35027 ft | 350 kts | 62° |
| 2026-05-06 16:19 | 31.66578 | 116.94833 | 35027 ft | 350 kts | 62° |
| 2026-05-06 16:20 | 31.68269 | 117.00185 | 35029 ft | 350 kts | 62° |
| 2026-05-06 16:20 | 31.69921 | 117.05523 | 35036 ft | 350 kts | 62° |
| 2026-05-06 16:21 | 31.71517 | 117.10737 | 35024 ft | 336 kts | 62° |
| 2026-05-06 16:21 | 31.73097 | 117.15868 | 35027 ft | 336 kts | 62° |
| 2026-05-06 16:22 | 31.74688 | 117.21032 | 35027 ft | 336 kts | 62° |
| 2026-05-06 16:22 | 31.76275 | 117.26200 | 35030 ft | 336 kts | 62° |
| 2026-05-06 16:23 | 31.77380 | 117.31606 | 35027 ft | 352 kts | 77° |
| 2026-05-06 16:23 | 31.77155 | 117.37458 | 35031 ft | 362 kts | 84° |
| 2026-05-06 16:24 | 31.76675 | 117.43360 | 35028 ft | 363 kts | 84° |
| 2026-05-06 16:24 | 31.76227 | 117.49256 | 35028 ft | 362 kts | 84° |
| 2026-05-06 16:25 | 31.75807 | 117.55148 | 35027 ft | 362 kts | 84° |
| 2026-05-06 16:25 | 31.75396 | 117.61038 | 35030 ft | 362 kts | 83° |
| 2026-05-06 16:26 | 31.74986 | 117.66931 | 35029 ft | 362 kts | 84° |
| 2026-05-06 16:26 | 31.74573 | 117.72823 | 35027 ft | 362 kts | 84° |
| 2026-05-06 16:27 | 31.74157 | 117.78717 | 35026 ft | 362 kts | 84° |
| 2026-05-06 16:27 | 31.73739 | 117.84605 | 34942 ft | 361 kts | 84° |
| 2026-05-06 16:28 | 31.73317 | 117.90495 | 34929 ft | 362 kts | 84° |
| 2026-05-06 16:28 | 31.72893 | 117.96392 | 34929 ft | 362 kts | 84° |
| 2026-05-06 16:29 | 31.72466 | 118.02284 | 34929 ft | 362 kts | 84° |
| 2026-05-06 16:29 | 31.72039 | 118.08142 | 34929 ft | 362 kts | 84° |
| 2026-05-06 16:30 | 31.71678 | 118.13082 | 34929 ft | 362 kts | 84° |
| 2026-05-06 16:30 | 31.71190 | 118.19929 | 34929 ft | 362 kts | 84° |
| 2026-05-06 16:31 | 31.70777 | 118.25821 | 34929 ft | 362 kts | 84° |
| 2026-05-06 16:31 | 31.70366 | 118.31713 | 34929 ft | 362 kts | 84° |
| 2026-05-06 16:32 | 31.69952 | 118.37604 | 34929 ft | 362 kts | 84° |
| 2026-05-06 16:32 | 31.69536 | 118.43494 | 34930 ft | 362 kts | 84° |
| 2026-05-06 16:33 | 31.69116 | 118.49386 | 34929 ft | 362 kts | 84° |
| 2026-05-06 16:34 | 31.68483 | 118.58216 | 34929 ft | 362 kts | 84° |
| 2026-05-06 16:34 | 31.68057 | 118.64108 | 34929 ft | 362 kts | 84° |
| 2026-05-06 16:35 | 31.67628 | 118.70001 | 34929 ft | 362 kts | 84° |
| 2026-05-06 16:35 | 31.67196 | 118.75896 | 34929 ft | 362 kts | 84° |
| 2026-05-06 16:36 | 31.66762 | 118.81789 | 34929 ft | 362 kts | 84° |
| 2026-05-06 16:36 | 31.66325 | 118.87680 | 34929 ft | 362 kts | 84° |
| 2026-05-06 16:37 | 31.65885 | 118.93570 | 34928 ft | 362 kts | 84° |
| 2026-05-06 16:37 | 31.65438 | 118.99464 | 34930 ft | 363 kts | 84° |
| 2026-05-06 16:38 | 31.65008 | 119.05354 | 34929 ft | 361 kts | 83° |
| 2026-05-06 16:38 | 31.64692 | 119.11195 | 34929 ft | 361 kts | 82° |
| 2026-05-06 16:39 | 31.64411 | 119.17063 | 34927 ft | 360 kts | 82° |
| 2026-05-06 16:39 | 31.64151 | 119.22931 | 34929 ft | 360 kts | 82° |
| 2026-05-06 16:40 | 31.63890 | 119.28797 | 34931 ft | 360 kts | 82° |
| 2026-05-06 16:40 | 31.63626 | 119.34660 | 34929 ft | 360 kts | 82° |
| 2026-05-06 16:41 | 31.63354 | 119.40527 | 34929 ft | 360 kts | 82° |
| 2026-05-06 16:41 | 31.63075 | 119.46400 | 34929 ft | 360 kts | 82° |
| 2026-05-06 16:42 | 31.62796 | 119.52266 | 34929 ft | 360 kts | 82° |
| 2026-05-06 16:42 | 31.62515 | 119.58137 | 34929 ft | 360 kts | 82° |
| 2026-05-06 16:43 | 31.62232 | 119.64006 | 34929 ft | 360 kts | 82° |
| 2026-05-06 16:43 | 31.61953 | 119.69874 | 34932 ft | 360 kts | 82° |
| 2026-05-06 16:44 | 31.61683 | 119.75740 | 34929 ft | 360 kts | 82° |
| 2026-05-06 16:44 | 31.61418 | 119.81563 | 34929 ft | 360 kts | 82° |
| 2026-05-06 16:45 | 31.61149 | 119.87429 | 34929 ft | 360 kts | 82° |
| 2026-05-06 16:45 | 31.60881 | 119.93208 | 34929 ft | 360 kts | 82° |
| 2026-05-06 16:46 | 31.60607 | 119.99074 | 34929 ft | 360 kts | 82° |
| 2026-05-06 16:46 | 31.60330 | 120.04939 | 34929 ft | 360 kts | 82° |
| 2026-05-06 16:47 | 31.60055 | 120.10712 | 34930 ft | 360 kts | 82° |
| 2026-05-06 16:47 | 31.59773 | 120.16579 | 34929 ft | 360 kts | 82° |
| 2026-05-06 16:48 | 31.59488 | 120.22439 | 34929 ft | 360 kts | 82° |
| 2026-05-06 16:48 | 31.59201 | 120.28308 | 34929 ft | 360 kts | 82° |
| 2026-05-06 16:49 | 31.58304 | 120.34204 | 34931 ft | 378 kts | 95° |
| 2026-05-06 16:49 | 31.56576 | 120.40074 | 34928 ft | 382 kts | 98° |
| 2026-05-06 16:50 | 31.54773 | 120.45932 | 34928 ft | 382 kts | 98° |
| 2026-05-06 16:50 | 31.53301 | 120.50802 | 34929 ft | 381 kts | 97° |
| 2026-05-06 16:51 | 31.51548 | 120.56667 | 34928 ft | 381 kts | 97° |
| 2026-05-06 16:51 | 31.49803 | 120.62526 | 34929 ft | 381 kts | 97° |
| 2026-05-06 16:52 | 31.48055 | 120.68389 | 34928 ft | 381 kts | 97° |
| 2026-05-06 16:52 | 31.46304 | 120.74248 | 34928 ft | 381 kts | 97° |
| 2026-05-06 16:53 | 31.44549 | 120.80111 | 34928 ft | 381 kts | 97° |
| 2026-05-06 16:53 | 31.42793 | 120.85963 | 34929 ft | 381 kts | 97° |
| 2026-05-06 16:54 | 31.41033 | 120.91820 | 34929 ft | 381 kts | 97° |
| 2026-05-06 16:54 | 31.39271 | 120.97674 | 34928 ft | 381 kts | 97° |
| 2026-05-06 16:55 | 31.37504 | 121.03530 | 34928 ft | 381 kts | 97° |
| 2026-05-06 16:55 | 31.35737 | 121.09377 | 34928 ft | 382 kts | 98° |
| 2026-05-06 16:56 | 31.33933 | 121.15220 | 34933 ft | 382 kts | 98° |
| 2026-05-06 16:56 | 31.32117 | 121.21066 | 34928 ft | 382 kts | 98° |
| 2026-05-06 16:57 | 31.30307 | 121.26905 | 34928 ft | 382 kts | 98° |
| 2026-05-06 16:57 | 31.28556 | 121.32566 | 34928 ft | 382 kts | 97° |
| 2026-05-06 16:58 | 31.26977 | 121.38433 | 34929 ft | 377 kts | 94° |
| 2026-05-06 16:58 | 31.25556 | 121.44323 | 34933 ft | 376 kts | 94° |
| 2026-05-06 16:59 | 31.24152 | 121.50170 | 34930 ft | 376 kts | 94° |
| 2026-05-06 16:59 | 31.22726 | 121.56055 | 34929 ft | 376 kts | 94° |
| 2026-05-06 17:00 | 31.21317 | 121.61845 | 34928 ft | 377 kts | 94° |
| 2026-05-06 17:00 | 31.19881 | 121.67724 | 34929 ft | 377 kts | 94° |
| 2026-05-06 17:01 | 31.18441 | 121.73607 | 34929 ft | 377 kts | 94° |
| 2026-05-06 17:01 | 31.17557 | 121.79474 | 34925 ft | 354 kts | 77° |
| 2026-05-06 17:02 | 31.18358 | 121.84989 | 34934 ft | 342 kts | 67° |
| 2026-05-06 17:02 | 31.19489 | 121.90379 | 34928 ft | 342 kts | 67° |
| 2026-05-06 17:03 | 31.20581 | 121.95788 | 34928 ft | 343 kts | 68° |
| 2026-05-06 17:03 | 31.21638 | 122.01216 | 34928 ft | 343 kts | 68° |
| 2026-05-06 17:04 | 31.22680 | 122.06652 | 34928 ft | 343 kts | 68° |
| 2026-05-06 17:04 | 31.23716 | 122.12095 | 34928 ft | 343 kts | 68° |
| 2026-05-06 17:05 | 31.24749 | 122.17538 | 34928 ft | 343 kts | 68° |
| 2026-05-06 17:05 | 31.25779 | 122.22982 | 34930 ft | 343 kts | 68° |
| 2026-05-06 17:06 | 31.26807 | 122.28428 | 34928 ft | 343 kts | 68° |
| 2026-05-06 17:06 | 31.27832 | 122.33871 | 34934 ft | 343 kts | 68° |
| 2026-05-06 17:07 | 31.28855 | 122.39321 | 34933 ft | 343 kts | 68° |
| 2026-05-06 17:07 | 31.29878 | 122.44770 | 34934 ft | 343 kts | 68° |
| 2026-05-06 17:08 | 31.30912 | 122.50219 | 34928 ft | 343 kts | 68° |
| 2026-05-06 17:08 | 31.31953 | 122.55661 | 34928 ft | 343 kts | 68° |
| 2026-05-06 17:09 | 31.32990 | 122.61067 | 34933 ft | 343 kts | 68° |
| 2026-05-06 17:09 | 31.34032 | 122.66508 | 34928 ft | 343 kts | 68° |
| 2026-05-06 17:10 | 31.35072 | 122.71956 | 34928 ft | 343 kts | 68° |
| 2026-05-06 17:10 | 31.36111 | 122.77397 | 34931 ft | 343 kts | 68° |
| 2026-05-06 17:11 | 31.37162 | 122.82840 | 34932 ft | 343 kts | 68° |
| 2026-05-06 17:11 | 31.38218 | 122.88278 | 34928 ft | 343 kts | 68° |
| 2026-05-06 17:12 | 31.39275 | 122.93719 | 34928 ft | 343 kts | 68° |
| 2026-05-06 17:12 | 31.40330 | 122.99161 | 34932 ft | 343 kts | 68° |
| 2026-05-06 17:13 | 31.41382 | 123.04602 | 34928 ft | 343 kts | 68° |
| 2026-05-06 17:13 | 31.42433 | 123.10047 | 34928 ft | 343 kts | 68° |
| 2026-05-06 17:14 | 31.43481 | 123.15492 | 34928 ft | 343 kts | 68° |
| 2026-05-06 17:14 | 31.44527 | 123.20939 | 34928 ft | 343 kts | 68° |
| 2026-05-06 17:15 | 31.45570 | 123.26386 | 34928 ft | 343 kts | 68° |
| 2026-05-06 17:15 | 31.46612 | 123.31837 | 34928 ft | 343 kts | 68° |
| 2026-05-06 17:16 | 31.47652 | 123.37292 | 34928 ft | 343 kts | 68° |
| 2026-05-06 17:16 | 31.48689 | 123.42744 | 34928 ft | 343 kts | 68° |
| 2026-05-06 17:17 | 31.49717 | 123.48162 | 34928 ft | 343 kts | 68° |
| 2026-05-06 17:17 | 31.50837 | 123.53579 | 34928 ft | 341 kts | 66° |
| 2026-05-06 17:18 | 31.52021 | 123.58957 | 34931 ft | 341 kts | 66° |
| 2026-05-06 17:18 | 31.53214 | 123.64335 | 34928 ft | 341 kts | 66° |
| 2026-05-06 17:19 | 31.54399 | 123.69692 | 34928 ft | 341 kts | 66° |